Time;durP1;ratioP1;P1;durP2;ratioP2;P2;SDS_P1;SDS_P2;PMS_P1;PMS_P2;Temp;Humidity;BMP_temperature;BMP_pressure;BME280_temperature;BME280_humidity;BME280_pressure;Samples;Min_cycle;Max_cycle;Signal;HPM_P1;HPM_P2
2021/04/25 00:01:31;;;;;;;3.63;0.95;;;15.70;50.60;;;;;;4938147;29;20403;-80
2021/04/25 00:03:56;;;;;;;1.60;0.60;;;15.70;50.70;;;;;;4934528;29;20102;-81
2021/04/25 00:06:22;;;;;;;2.42;1.08;;;15.70;50.70;;;;;;4935926;29;20051;-80
2021/04/25 00:08:48;;;;;;;0.60;0.60;;;15.80;51.10;;;;;;4935157;29;20036;-80
2021/04/25 00:11:13;;;;;;;1.20;0.82;;;15.90;50.00;;;;;;4938316;29;20035;-80
2021/04/25 00:13:39;;;;;;;1.95;0.90;;;15.90;50.00;;;;;;4934949;29;20055;-80
2021/04/25 00:16:05;;;;;;;1.58;0.73;;;16.00;49.50;;;;;;4935420;29;20103;-80
2021/04/25 00:18:34;;;;;;;10.25;1.23;;;16.00;49.50;;;;;;4934445;29;20019;-80
2021/04/25 00:21:00;;;;;;;2.22;0.77;;;16.00;49.60;;;;;;4936107;29;20055;-81
2021/04/25 00:23:25;;;;;;;1.08;0.95;;;15.90;49.70;;;;;;4934851;29;20044;-80
2021/04/25 00:25:51;;;;;;;3.60;1.20;;;15.90;49.90;;;;;;4934998;29;20502;-80
2021/04/25 00:28:17;;;;;;;2.25;1.02;;;15.90;49.80;;;;;;4935000;29;20040;-80
2021/04/25 00:30:43;;;;;;;1.25;0.77;;;15.90;50.20;;;;;;4934596;29;20063;-80
2021/04/25 00:33:09;;;;;;;1.17;0.98;;;15.80;49.90;;;;;;4932764;29;20447;-80
2021/04/25 00:35:35;;;;;;;8.27;0.90;;;15.80;50.00;;;;;;4934876;29;20042;-81
2021/04/25 00:38:02;;;;;;;2.80;0.90;;;15.80;50.20;;;;;;4940582;29;20483;-80
2021/04/25 00:40:28;;;;;;;3.08;0.70;;;15.80;50.10;;;;;;4939813;29;20106;-80
2021/04/25 00:42:53;;;;;;;0.90;0.88;;;15.80;50.30;;;;;;4938230;29;20070;-80
2021/04/25 00:45:19;;;;;;;4.00;1.00;;;15.80;50.20;;;;;;4939354;29;20034;-80
2021/04/25 00:47:47;;;;;;;2.00;0.98;;;15.80;50.20;;;;;;4921278;29;20399;-80
2021/04/25 00:50:15;;;;;;;1.52;1.20;;;15.80;50.00;;;;;;4939971;29;20039;-80
2021/04/25 00:52:42;;;;;;;2.80;1.20;;;15.80;50.10;;;;;;4940890;29;20031;-80
2021/04/25 00:55:10;;;;;;;1.80;0.70;;;15.80;50.10;;;;;;4938191;29;20056;-80
2021/04/25 00:57:35;;;;;;;2.38;0.80;;;15.80;50.10;;;;;;4938164;29;20020;-80
2021/04/25 01:00:03;;;;;;;2.85;1.40;;;15.70;50.50;;;;;;4937822;29;20043;-80
2021/04/25 01:02:29;;;;;;;3.92;0.73;;;15.70;50.70;;;;;;4938131;29;20026;-80
2021/04/25 01:04:55;;;;;;;8.10;1.45;;;15.60;50.80;;;;;;4938361;29;20373;-79
2021/04/25 01:07:21;;;;;;;0.73;0.50;;;15.60;51.00;;;;;;4937884;29;20035;-81
2021/04/25 01:09:46;;;;;;;2.42;1.02;;;15.50;51.00;;;;;;4939258;29;20054;-80
2021/04/25 01:12:12;;;;;;;1.02;0.85;;;15.50;51.60;;;;;;4937351;29;20023;-79
2021/04/25 01:14:38;;;;;;;2.58;1.05;;;15.50;51.60;;;;;;4938738;29;20044;-80
2021/04/25 01:17:04;;;;;;;3.30;0.90;;;15.50;51.70;;;;;;4938773;29;20570;-80
2021/04/25 01:19:29;;;;;;;1.70;1.17;;;15.40;51.60;;;;;;4938369;29;20063;-80
2021/04/25 01:21:55;;;;;;;1.95;0.88;;;15.40;51.90;;;;;;4920292;29;20019;-80
2021/04/25 01:24:21;;;;;;;3.05;0.95;;;15.30;52.70;;;;;;4936765;29;20032;-80
2021/04/25 01:26:46;;;;;;;1.20;0.65;;;15.20;52.90;;;;;;4915331;29;20032;-80
2021/04/25 01:29:12;;;;;;;4.03;1.27;;;15.10;53.10;;;;;;4937719;29;20499;-80
2021/04/25 01:31:37;;;;;;;3.13;1.35;;;15.00;53.40;;;;;;4936837;29;20039;-80
2021/04/25 01:34:03;;;;;;;0.98;0.68;;;14.90;53.70;;;;;;4936309;29;20132;-80
2021/04/25 01:36:29;;;;;;;2.22;0.90;;;14.90;53.90;;;;;;4937032;29;20043;-79
2021/04/25 01:38:54;;;;;;;4.00;1.10;;;14.90;54.00;;;;;;4936746;29;20051;-79
2021/04/25 01:41:20;;;;;;;0.90;0.77;;;14.80;53.80;;;;;;4936536;29;20051;-79
2021/04/25 01:43:47;;;;;;;3.72;1.00;;;14.80;54.20;;;;;;4936956;29;20086;-80
2021/04/25 01:46:16;;;;;;;6.43;1.52;;;14.70;54.50;;;;;;4937155;29;20048;-80
2021/04/25 01:48:43;;;;;;;1.98;0.98;;;14.60;54.80;;;;;;4935961;29;20028;-80
2021/04/25 01:51:08;;;;;;;1.80;1.17;;;14.60;54.90;;;;;;4937376;29;20032;-80
2021/04/25 01:53:34;;;;;;;1.73;1.02;;;14.60;55.00;;;;;;4937064;29;20472;-80
2021/04/25 01:56:01;;;;;;;2.90;1.00;;;14.50;55.40;;;;;;4936288;29;20510;-80
2021/04/25 01:58:27;;;;;;;1.38;0.90;;;14.50;55.50;;;;;;4936837;29;20028;-80
2021/04/25 02:00:53;;;;;;;1.13;0.68;;;14.50;55.30;;;;;;4937149;29;20032;-79
2021/04/25 02:03:19;;;;;;;2.72;1.38;;;14.50;55.30;;;;;;4937052;29;20027;-80
2021/04/25 02:05:45;;;;;;;1.77;1.30;;;14.50;55.60;;;;;;4936656;29;20034;-81
2021/04/25 02:08:12;;;;;;;2.60;0.73;;;14.40;55.70;;;;;;4937829;29;20040;-80
2021/04/25 02:10:39;;;;;;;1.85;1.05;;;14.40;55.60;;;;;;4920582;29;20071;-81
2021/04/25 02:13:07;;;;;;;7.38;1.00;;;14.50;55.60;;;;;;4935397;29;20534;-80
2021/04/25 02:15:33;;;;;;;2.88;1.00;;;14.50;55.60;;;;;;4935301;29;20023;-79
2021/04/25 02:17:58;;;;;;;1.48;0.90;;;14.50;56.10;;;;;;4920198;29;20038;-80
2021/04/25 02:20:25;;;;;;;1.10;1.00;;;14.50;55.20;;;;;;4936779;29;20151;-80
2021/04/25 02:22:54;;;;;;;1.63;0.80;;;14.50;55.20;;;;;;4937630;29;20506;-80
2021/04/25 02:25:21;;;;;;;1.55;0.80;;;14.50;55.30;;;;;;4935338;29;20046;-80
2021/04/25 02:27:47;;;;;;;2.03;0.98;;;14.50;55.30;;;;;;4934871;29;20479;-80
2021/04/25 02:30:20;;;;;;;8.60;1.05;;;14.50;55.50;;;;;;4936258;29;20105;-81
2021/04/25 02:32:47;;;;;;;3.35;1.00;;;14.40;55.80;;;;;;4935376;29;20070;-80
2021/04/25 02:35:14;;;;;;;0.82;0.82;;;14.40;55.90;;;;;;4937517;29;20036;-81
2021/04/25 02:37:41;;;;;;;1.58;1.02;;;14.40;55.90;;;;;;4936837;29;20027;-81
2021/04/25 02:40:09;;;;;;;2.80;1.08;;;14.40;55.70;;;;;;4936027;29;20027;-81
2021/04/25 02:42:34;;;;;;;2.38;1.25;;;14.30;56.10;;;;;;4935463;29;20463;-80
2021/04/25 02:45:00;;;;;;;1.52;0.98;;;14.30;56.00;;;;;;4936245;29;20082;-80
2021/04/25 02:47:26;;;;;;;1.63;1.00;;;14.30;55.90;;;;;;4937440;29;20035;-80
2021/04/25 02:49:52;;;;;;;1.13;0.93;;;14.30;56.20;;;;;;4931422;29;20032;-81
2021/04/25 02:52:18;;;;;;;1.08;0.57;;;14.30;56.40;;;;;;4937515;29;20028;-81
2021/04/25 02:54:43;;;;;;;2.90;1.13;;;14.30;56.40;;;;;;4937115;29;20042;-80
2021/04/25 02:57:09;;;;;;;3.95;1.08;;;14.30;56.10;;;;;;4935780;29;20038;-80
2021/04/25 02:59:35;;;;;;;1.10;0.90;;;14.30;56.00;;;;;;4937124;29;20024;-80
2021/04/25 03:02:01;;;;;;;3.20;1.10;;;14.30;56.20;;;;;;4937529;29;20042;-81
2021/04/25 03:04:27;;;;;;;2.42;0.98;;;14.30;55.90;;;;;;4920005;29;20024;-81
2021/04/25 03:06:52;;;;;;;1.30;0.90;;;14.20;56.10;;;;;;4938375;29;20105;-79
2021/04/25 03:09:18;;;;;;;2.20;1.10;;;14.20;56.30;;;;;;4935561;29;20039;-80
2021/04/25 03:11:44;;;;;;;2.30;1.00;;;14.10;56.40;;;;;;4935554;29;20079;-80
2021/04/25 03:14:09;;;;;;;6.20;1.30;;;14.10;56.90;;;;;;4934539;29;20023;-80
2021/04/25 03:16:35;;;;;;;2.75;1.20;;;14.10;56.30;;;;;;4935363;29;20070;-80
2021/04/25 03:19:00;;;;;;;1.80;0.93;;;14.10;56.40;;;;;;4935630;29;20027;-80
2021/04/25 03:21:26;;;;;;;2.92;1.10;;;14.00;56.40;;;;;;4935613;29;20031;-81
2021/04/25 03:23:52;;;;;;;3.30;1.40;;;14.00;56.60;;;;;;4934970;29;20027;-80
2021/04/25 03:26:17;;;;;;;2.42;1.13;;;14.00;56.70;;;;;;4934006;29;20031;-80
2021/04/25 03:28:43;;;;;;;1.17;0.82;;;13.90;57.00;;;;;;4934039;29;20417;-80
2021/04/25 03:31:10;;;;;;;3.60;1.02;;;13.90;56.90;;;;;;4934929;29;20028;-80
2021/04/25 03:33:36;;;;;;;3.60;1.20;;;13.90;57.00;;;;;;4934074;29;20030;-80
2021/04/25 03:36:01;;;;;;;2.45;0.90;;;13.90;56.80;;;;;;4934777;29;20028;-80
2021/04/25 03:38:27;;;;;;;1.27;0.80;;;13.90;56.90;;;;;;4934360;29;20032;-80
2021/04/25 03:40:55;;;;;;;1.13;0.90;;;13.80;57.10;;;;;;4917744;29;20024;-80
2021/04/25 03:43:20;;;;;;;1.55;0.88;;;13.80;57.10;;;;;;4934474;29;20094;-80
2021/04/25 03:45:46;;;;;;;2.92;1.48;;;13.80;57.50;;;;;;4934614;29;20019;-80
2021/04/25 03:48:11;;;;;;;4.32;1.00;;;13.80;57.70;;;;;;4917710;29;20086;-80
2021/04/25 03:50:37;;;;;;;2.20;1.00;;;13.80;57.50;;;;;;4907618;29;20040;-79
2021/04/25 03:53:03;;;;;;;6.93;0.95;;;13.70;57.70;;;;;;4934890;29;20036;-80
2021/04/25 03:55:29;;;;;;;1.42;0.90;;;13.70;58.20;;;;;;4934498;29;20055;-81
2021/04/25 03:57:55;;;;;;;1.65;0.98;;;13.60;58.00;;;;;;4933353;29;20055;-80
2021/04/25 04:00:21;;;;;;;1.98;1.10;;;13.60;58.10;;;;;;4934350;29;20060;-80
2021/04/25 04:02:47;;;;;;;1.17;1.00;;;13.50;58.00;;;;;;4917832;29;20024;-80
2021/04/25 04:05:13;;;;;;;5.88;1.02;;;13.50;58.00;;;;;;4934640;29;20087;-80
2021/04/25 04:07:39;;;;;;;4.60;1.10;;;13.50;58.50;;;;;;4934688;29;20027;-80
2021/04/25 04:10:06;;;;;;;1.77;1.02;;;13.40;58.40;;;;;;4934157;29;20115;-81
2021/04/25 04:12:32;;;;;;;2.78;0.75;;;13.40;58.50;;;;;;4937937;29;20031;-80
2021/04/25 04:14:57;;;;;;;1.55;1.00;;;13.30;58.80;;;;;;4938224;29;20399;-80
2021/04/25 04:17:23;;;;;;;4.60;0.98;;;13.30;59.20;;;;;;4938398;29;20443;-80
2021/04/25 04:19:49;;;;;;;1.05;0.75;;;13.20;58.90;;;;;;4938544;29;20051;-81
2021/04/25 04:22:14;;;;;;;2.10;1.10;;;13.20;59.10;;;;;;4938427;29;20019;-80
2021/04/25 04:24:41;;;;;;;1.85;0.95;;;13.10;59.30;;;;;;4937568;29;20032;-80
2021/04/25 04:27:06;;;;;;;2.28;0.68;;;13.10;59.90;;;;;;4936149;29;20032;-80
2021/04/25 04:29:33;;;;;;;2.75;1.08;;;13.00;59.90;;;;;;4937719;29;20035;-79
2021/04/25 04:31:59;;;;;;;0.82;0.82;;;13.00;59.70;;;;;;4938350;29;20020;-80
2021/04/25 04:34:25;;;;;;;0.98;0.90;;;12.90;59.80;;;;;;4937108;29;20032;-80
2021/04/25 04:36:50;;;;;;;1.27;0.88;;;12.90;60.10;;;;;;4938053;29;20027;-80
2021/04/25 04:39:16;;;;;;;1.10;1.00;;;12.90;60.00;;;;;;4937638;29;20472;-80
2021/04/25 04:41:42;;;;;;;1.35;0.98;;;12.90;60.00;;;;;;4937559;29;20027;-80
2021/04/25 04:44:07;;;;;;;2.30;1.13;;;12.80;60.30;;;;;;4937904;29;20032;-80
2021/04/25 04:46:34;;;;;;;1.80;1.05;;;12.80;60.20;;;;;;4920552;29;20050;-80
2021/04/25 04:49:00;;;;;;;2.35;1.02;;;12.80;60.50;;;;;;4937772;29;20051;-80
2021/04/25 04:51:26;;;;;;;1.92;1.02;;;12.70;61.10;;;;;;4910778;29;20059;-80
2021/04/25 04:53:51;;;;;;;1.60;0.98;;;12.70;61.10;;;;;;4937696;29;20055;-79
2021/04/25 04:56:17;;;;;;;2.60;1.40;;;12.60;61.10;;;;;;4937222;29;20424;-80
2021/04/25 04:58:42;;;;;;;0.95;0.73;;;12.50;61.40;;;;;;4936689;29;20406;-79
2021/04/25 05:01:08;;;;;;;2.20;1.08;;;12.50;61.70;;;;;;4937635;29;20031;-80
2021/04/25 05:03:34;;;;;;;1.75;1.05;;;12.40;61.50;;;;;;4937879;29;20023;-80
2021/04/25 05:05:59;;;;;;;5.35;0.90;;;12.40;62.30;;;;;;4937701;29;20023;-80
2021/04/25 05:08:25;;;;;;;3.78;1.08;;;12.40;62.30;;;;;;4937283;29;20032;-80
2021/04/25 05:10:51;;;;;;;3.13;0.95;;;12.30;62.50;;;;;;4934732;29;20034;-80
2021/04/25 05:13:17;;;;;;;1.65;0.90;;;12.40;62.50;;;;;;4937454;29;20440;-80
2021/04/25 05:15:43;;;;;;;4.15;1.15;;;12.40;62.10;;;;;;4936316;29;20477;-81
2021/04/25 05:18:08;;;;;;;1.75;0.93;;;12.40;62.20;;;;;;4937338;29;20032;-80
2021/04/25 05:20:34;;;;;;;1.85;1.05;;;12.50;62.40;;;;;;4920597;29;20031;-80
2021/04/25 05:23:01;;;;;;;1.75;1.10;;;12.40;62.10;;;;;;4937051;29;20038;-80
2021/04/25 05:25:27;;;;;;;1.75;1.10;;;12.50;62.50;;;;;;4936088;29;20387;-80
2021/04/25 05:27:53;;;;;;;1.35;0.90;;;12.50;62.20;;;;;;4935037;29;20518;-80
2021/04/25 05:30:19;;;;;;;1.75;0.95;;;12.50;62.40;;;;;;4920138;29;20059;-80
2021/04/25 05:32:45;;;;;;;0.93;0.85;;;12.50;62.40;;;;;;4937302;29;20030;-80
2021/04/25 05:35:12;;;;;;;1.80;0.85;;;12.50;62.40;;;;;;4935990;29;20475;-80
2021/04/25 05:37:38;;;;;;;3.80;0.95;;;12.50;62.70;;;;;;4920424;29;20041;-80
2021/04/25 05:40:13;;;;;;;2.50;1.27;;;12.50;62.50;;;;;;4936812;29;20031;-81
2021/04/25 05:42:39;;;;;;;5.10;1.10;;;12.50;62.60;;;;;;4936835;29;20439;-80
2021/04/25 05:45:07;;;;;;;1.67;0.88;;;12.50;62.30;;;;;;4936742;29;20028;-80
2021/04/25 05:47:33;;;;;;;1.77;0.55;;;12.50;62.40;;;;;;4936808;29;20090;-80
2021/04/25 05:50:00;;;;;;;3.15;1.15;;;12.50;62.50;;;;;;4932057;29;20047;-80
2021/04/25 05:52:26;;;;;;;2.03;1.05;;;12.50;62.80;;;;;;4935956;29;20039;-80
2021/04/25 05:54:51;;;;;;;6.63;1.05;;;12.50;63.00;;;;;;4936711;29;20185;-81
2021/04/25 05:57:17;;;;;;;3.25;1.05;;;12.50;62.70;;;;;;4935359;29;20038;-81
2021/04/25 05:59:43;;;;;;;3.05;1.40;;;12.50;63.00;;;;;;4936512;29;20032;-81
2021/04/25 06:02:09;;;;;;;1.55;1.35;;;12.50;62.60;;;;;;4936918;29;20034;-81
2021/04/25 06:04:35;;;;;;;1.88;0.77;;;12.60;62.30;;;;;;4938522;29;20032;-80
2021/04/25 06:07:00;;;;;;;1.23;0.90;;;12.60;61.90;;;;;;4936554;29;20043;-81
2021/04/25 06:09:26;;;;;;;3.30;1.17;;;12.70;61.70;;;;;;4935423;29;20122;-80
2021/04/25 06:11:52;;;;;;;10.18;1.48;;;12.80;61.40;;;;;;4917548;29;20127;-81
2021/04/25 06:14:18;;;;;;;2.03;1.10;;;12.90;61.00;;;;;;4930194;29;20442;-80
2021/04/25 06:16:44;;;;;;;2.60;1.60;;;13.00;60.80;;;;;;4936384;29;20032;-79
2021/04/25 06:19:10;;;;;;;8.07;1.27;;;13.10;60.90;;;;;;4937497;29;20062;-81
2021/04/25 06:21:35;;;;;;;1.70;1.20;;;13.20;60.40;;;;;;4935856;29;20032;-81
2021/04/25 06:24:01;;;;;;;1.90;0.93;;;13.30;60.00;;;;;;4918721;29;20142;-81
2021/04/25 06:26:27;;;;;;;3.38;1.42;;;13.40;60.00;;;;;;4935030;29;20032;-81
2021/04/25 06:28:52;;;;;;;1.50;1.13;;;13.50;59.40;;;;;;4937387;29;20047;-81
2021/04/25 06:31:18;;;;;;;3.92;1.30;;;13.50;59.90;;;;;;4936561;29;20103;-81
2021/04/25 06:33:45;;;;;;;1.23;1.10;;;13.60;59.30;;;;;;4935428;29;20558;-81
2021/04/25 06:36:12;;;;;;;1.75;0.85;;;13.70;59.70;;;;;;4934829;29;20028;-81
2021/04/25 06:38:37;;;;;;;2.35;1.33;;;13.70;59.00;;;;;;4935640;29;20094;-81
2021/04/25 06:41:03;;;;;;;2.10;0.98;;;13.70;58.60;;;;;;4935892;29;20479;-81
2021/04/25 06:43:30;;;;;;;2.63;1.27;;;13.90;59.00;;;;;;4936014;29;20035;-80
2021/04/25 06:45:56;;;;;;;1.00;0.65;;;13.90;59.20;;;;;;4935690;29;20027;-81
2021/04/25 06:48:21;;;;;;;8.32;1.35;;;14.00;58.40;;;;;;4935745;29;20044;-81
2021/04/25 06:50:48;;;;;;;3.13;1.10;;;14.00;57.60;;;;;;4908114;29;20503;-81
2021/04/25 06:53:14;;;;;;;1.50;1.08;;;14.20;58.00;;;;;;4935681;29;20592;-80
2021/04/25 06:55:40;;;;;;;4.80;1.25;;;14.30;57.50;;;;;;4935661;29;20055;-79
2021/04/25 06:58:05;;;;;;;2.33;1.10;;;14.50;57.20;;;;;;4934635;29;20028;-81
2021/04/25 07:00:31;;;;;;;4.20;1.55;;;14.60;56.90;;;;;;4935234;29;20024;-81
2021/04/25 07:02:57;;;;;;;3.05;1.30;;;14.70;56.20;;;;;;4935989;29;20019;-81
2021/04/25 07:05:23;;;;;;;2.42;1.20;;;14.80;56.50;;;;;;4935417;29;20023;-81
2021/04/25 07:07:50;;;;;;;4.85;1.50;;;14.90;55.20;;;;;;4936861;29;20034;-80
2021/04/25 07:10:15;;;;;;;5.22;1.60;;;15.10;55.80;;;;;;4935035;29;20038;-81
2021/04/25 07:12:42;;;;;;;4.45;1.55;;;15.20;54.80;;;;;;4935346;29;20118;-81
2021/04/25 07:15:08;;;;;;;1.15;1.05;;;15.40;54.30;;;;;;4934570;29;20030;-81
2021/04/25 07:17:34;;;;;;;6.72;1.70;;;15.50;53.20;;;;;;4935441;29;20119;-81
2021/04/25 07:20:00;;;;;;;2.10;1.40;;;15.80;54.20;;;;;;4935659;29;20102;-80
2021/04/25 07:22:26;;;;;;;1.42;1.08;;;16.00;53.00;;;;;;4935506;29;20483;-80
2021/04/25 07:24:52;;;;;;;2.08;1.38;;;16.20;52.00;;;;;;4934585;29;20517;-81
2021/04/25 07:27:18;;;;;;;3.00;1.50;;;16.70;52.20;;;;;;4933437;29;20514;-81
2021/04/25 07:29:44;;;;;;;2.85;1.45;;;16.90;50.80;;;;;;4934848;29;20035;-82
2021/04/25 07:32:10;;;;;;;3.33;1.40;;;16.90;50.60;;;;;;4935240;29;20040;-81
2021/04/25 07:34:36;;;;;;;3.28;1.40;;;16.80;50.20;;;;;;4934536;29;20032;-81
2021/04/25 07:37:05;;;;;;;2.47;1.20;;;17.00;50.20;;;;;;4935168;29;20034;-80
2021/04/25 07:39:35;;;;;;;3.53;1.55;;;17.20;49.70;;;;;;4934613;29;20016;-81
2021/04/25 07:42:02;;;;;;;1.27;1.17;;;17.10;49.90;;;;;;4934637;29;20023;-81
2021/04/25 07:44:28;;;;;;;3.63;1.27;;;17.10;50.10;;;;;;4934442;29;20020;-81
2021/04/25 07:46:54;;;;;;;4.40;1.40;;;17.40;50.20;;;;;;4935280;29;20114;-81
2021/04/25 07:49:20;;;;;;;2.47;1.20;;;17.60;48.60;;;;;;4932043;29;20024;-81
2021/04/25 07:51:46;;;;;;;6.07;1.60;;;17.90;47.50;;;;;;4929371;29;20046;-82
2021/04/25 07:54:12;;;;;;;4.53;1.63;;;18.20;47.80;;;;;;4934607;29;20055;-82
2021/04/25 07:56:37;;;;;;;2.10;1.50;;;19.00;46.10;;;;;;4933790;29;20058;-82
2021/04/25 07:59:03;;;;;;;3.65;1.65;;;19.40;44.30;;;;;;4917246;29;20023;-80
2021/04/25 08:01:29;;;;;;;9.27;1.23;;;18.80;45.70;;;;;;4934826;29;20036;-80
2021/04/25 08:03:57;;;;;;;2.08;1.10;;;18.60;46.50;;;;;;4934719;29;20502;-82
2021/04/25 08:06:23;;;;;;;2.78;1.33;;;19.40;44.60;;;;;;4934926;29;20476;-82
2021/04/25 08:08:49;;;;;;;2.72;1.13;;;18.90;45.50;;;;;;4934352;29;20023;-81
2021/04/25 08:11:14;;;;;;;2.20;1.40;;;18.70;46.90;;;;;;4934594;29;20036;-80
2021/04/25 08:13:40;;;;;;;5.15;1.52;;;18.60;47.40;;;;;;4933229;29;20028;-80
2021/04/25 08:16:06;;;;;;;2.38;1.52;;;18.80;46.30;;;;;;4934399;29;20102;-81
2021/04/25 08:18:32;;;;;;;1.33;1.20;;;19.10;47.10;;;;;;4934561;29;20455;-82
2021/04/25 08:20:57;;;;;;;4.18;1.80;;;20.40;43.60;;;;;;4934731;29;20503;-82
2021/04/25 08:23:23;;;;;;;4.63;1.63;;;21.20;41.90;;;;;;4934085;29;20020;-81
2021/04/25 08:25:49;;;;;;;1.65;1.55;;;22.00;39.40;;;;;;4917655;29;20135;-80
2021/04/25 08:28:14;;;;;;;3.63;1.75;;;22.50;38.60;;;;;;4933080;29;20032;-82
2021/04/25 08:30:40;;;;;;;3.22;2.03;;;22.90;38.50;;;;;;4934618;29;20095;-82
2021/04/25 08:33:07;;;;;;;2.08;1.85;;;23.00;37.90;;;;;;4934249;29;20121;-81
2021/04/25 08:35:32;;;;;;;3.25;1.83;;;21.80;39.20;;;;;;4933436;29;20052;-82
2021/04/25 08:37:58;;;;;;;2.67;1.60;;;21.80;40.50;;;;;;4934484;29;20499;-82
2021/04/25 08:40:23;;;;;;;2.80;1.40;;;22.50;39.20;;;;;;4933779;29;20055;-81
2021/04/25 08:42:49;;;;;;;5.05;1.88;;;23.20;37.70;;;;;;4934087;29;20015;-82
2021/04/25 08:45:16;;;;;;;2.88;1.90;;;22.60;37.70;;;;;;4917191;29;20031;-82
2021/04/25 08:48:10;;;;;;;2.90;1.48;;;23.00;37.20;;;;;;4934261;29;20049;-82
2021/04/25 08:50:36;;;;;;;3.03;1.85;;;23.00;36.70;;;;;;4930890;29;20404;-81
2021/04/25 08:53:02;;;;;;;1.92;1.60;;;22.80;37.30;;;;;;4934162;29;20087;-80
2021/04/25 08:55:29;;;;;;;2.20;1.63;;;23.10;38.30;;;;;;4933691;29;20471;-81
2021/04/25 08:57:55;;;;;;;4.43;2.00;;;23.60;36.30;;;;;;4934816;29;20059;-81
2021/04/25 09:00:21;;;;;;;3.42;1.63;;;22.70;38.00;;;;;;4937747;29;20099;-81
2021/04/25 09:02:47;;;;;;;3.33;2.17;;;21.60;41.40;;;;;;4937641;29;20112;-80
2021/04/25 09:05:13;;;;;;;5.32;2.10;;;21.10;41.90;;;;;;4937594;29;20031;-80
2021/04/25 09:07:53;;;;;;;1.80;1.50;;;21.40;43.10;;;;;;4937773;29;20087;-82
2021/04/25 09:10:19;;;;;;;4.88;1.58;;;21.60;41.90;;;;;;4917604;29;20122;-81
2021/04/25 09:12:45;;;;;;;3.22;1.83;;;22.10;40.90;;;;;;4919106;29;20122;-82
2021/04/25 09:15:10;;;;;;;5.22;1.60;;;22.30;40.50;;;;;;4937042;29;20506;-81
2021/04/25 09:17:52;;;;;;;2.67;1.60;;;22.60;39.00;;;;;;4937703;29;20036;-81
2021/04/25 09:20:20;;;;;;;4.80;1.60;;;22.30;40.90;;;;;;4937320;29;20031;-81
2021/04/25 09:22:52;;;;;;;5.32;1.70;;;21.50;41.20;;;;;;4937295;29;20497;-81
2021/04/25 09:25:19;;;;;;;3.35;1.80;;;21.50;41.80;;;;;;4936130;29;20491;-81
2021/04/25 09:27:47;;;;;;;7.22;1.83;;;21.60;41.50;;;;;;4935719;29;20462;-81
2021/04/25 09:30:23;;;;;;;5.93;1.40;;;21.30;42.30;;;;;;4937174;29;20059;-81
2021/04/25 09:32:59;;;;;;;2.05;1.40;;;21.20;42.60;;;;;;4937062;29;20063;-80
2021/04/25 09:35:25;;;;;;;5.00;1.60;;;21.00;44.20;;;;;;4937114;29;20024;-81
2021/04/25 09:37:51;;;;;;;4.57;1.83;;;20.60;44.90;;;;;;4918558;29;20032;-81
2021/04/25 09:40:23;;;;;;;2.63;1.65;;;20.20;46.10;;;;;;4920061;29;20046;-81
2021/04/25 09:43:08;;;;;;;4.68;1.73;;;19.90;46.50;;;;;;4936402;29;20476;-80
2021/04/25 09:45:44;;;;;;;2.80;1.88;;;19.50;47.10;;;;;;4919417;29;20028;-80
2021/04/25 09:48:25;;;;;;;3.65;1.77;;;19.10;48.10;;;;;;4919519;29;20038;-81
2021/04/25 09:51:10;;;;;;;3.47;1.67;;;19.00;48.50;;;;;;4927738;29;20106;-81
2021/04/25 09:53:37;;;;;;;8.70;1.60;;;18.80;48.90;;;;;;4936649;29;20524;-80
2021/04/25 09:56:05;;;;;;;2.53;1.50;;;18.70;49.20;;;;;;4919512;29;20047;-81
2021/04/25 09:58:31;;;;;;;7.63;1.48;;;18.80;49.40;;;;;;4918123;29;20054;-81
2021/04/25 10:00:57;;;;;;;2.58;1.77;;;19.00;49.50;;;;;;4936447;29;20023;-81
2021/04/25 10:03:32;;;;;;;4.18;1.85;;;20.40;47.50;;;;;;4936469;29;20063;-81
2021/04/25 10:06:00;;;;;;;3.65;2.33;;;21.80;43.90;;;;;;4936758;29;20019;-82
2021/04/25 10:08:30;;;;;;;2.90;1.75;;;23.20;40.60;;;;;;4918028;29;20505;-80
2021/04/25 10:10:57;;;;;;;5.55;2.08;;;24.20;38.30;;;;;;4928357;29;20114;-81
2021/04/25 10:13:26;;;;;;;4.88;2.22;;;25.00;37.70;;;;;;4935751;29;20024;-81
2021/04/25 10:15:52;;;;;;;3.58;1.90;;;25.30;37.30;;;;;;4936514;29;20108;-82
2021/04/25 10:18:18;;;;;;;2.65;2.00;;;25.10;36.00;;;;;;4936122;29;20031;-81
2021/04/25 10:20:48;;;;;;;3.42;2.25;;;25.50;36.20;;;;;;4936360;29;20027;-81
2021/04/25 10:23:14;;;;;;;2.67;2.00;;;26.10;35.20;;;;;;4918777;29;20090;-80
2021/04/25 10:25:40;;;;;;;8.10;2.15;;;25.80;35.60;;;;;;4935280;29;20394;-81
2021/04/25 10:28:13;;;;;;;2.70;1.95;;;25.50;35.30;;;;;;4934468;29;20023;-81
2021/04/25 10:30:41;;;;;;;2.47;1.98;;;26.10;35.00;;;;;;4936454;29;20027;-82
2021/04/25 10:33:07;;;;;;;4.85;2.00;;;26.70;34.50;;;;;;4936043;29;20083;-82
2021/04/25 10:35:35;;;;;;;2.35;1.92;;;26.90;33.00;;;;;;4919017;29;20103;-81
2021/04/25 10:38:06;;;;;;;2.78;2.03;;;26.70;33.60;;;;;;4935043;29;20398;-81
2021/04/25 10:40:45;;;;;;;4.00;2.00;;;26.90;34.00;;;;;;4935433;29;20039;-81
2021/04/25 10:43:11;;;;;;;2.55;1.60;;;26.00;33.90;;;;;;4935170;29;20435;-81
2021/04/25 10:46:00;;;;;;;3.70;1.85;;;24.40;36.70;;;;;;4935880;29;20071;-81
2021/04/25 10:48:27;;;;;;;3.38;1.70;;;23.40;39.40;;;;;;4928107;29;20032;-81
2021/04/25 10:51:13;;;;;;;1.90;1.55;;;23.20;39.80;;;;;;4935798;29;20395;-81
2021/04/25 10:53:42;;;;;;;1.52;1.40;;;23.00;39.50;;;;;;4934551;29;20035;-81
2021/04/25 10:56:13;;;;;;;3.05;1.70;;;22.60;40.20;;;;;;4918584;29;20522;-81
2021/04/25 10:58:41;;;;;;;1.98;1.50;;;22.40;40.80;;;;;;4934307;29;20025;-81
2021/04/25 11:01:07;;;;;;;2.58;1.80;;;22.30;40.40;;;;;;4918472;29;20031;-81
2021/04/25 11:03:33;;;;;;;6.53;1.48;;;22.40;40.90;;;;;;4935342;29;20496;-81
2021/04/25 11:05:59;;;;;;;2.05;1.73;;;22.40;41.00;;;;;;4935801;29;20107;-80
2021/04/25 11:08:30;;;;;;;2.17;1.58;;;22.20;41.00;;;;;;4935193;29;20418;-80
2021/04/25 11:11:05;;;;;;;3.90;1.73;;;22.30;41.10;;;;;;4934607;29;20505;-81
2021/04/25 11:13:37;;;;;;;5.20;1.60;;;22.50;41.50;;;;;;4934440;29;20031;-81
2021/04/25 11:16:06;;;;;;;1.48;1.38;;;22.60;40.90;;;;;;4934798;29;20060;-81
2021/04/25 11:19:09;;;;;;;7.32;1.60;;;22.70;40.00;;;;;;4935337;29;20035;-80
2021/04/25 11:21:52;;;;;;;1.75;1.63;;;22.50;41.20;;;;;;4917697;29;20032;-80
2021/04/25 11:24:29;;;;;;;2.95;1.65;;;22.70;41.90;;;;;;4934026;29;20458;-80
2021/04/25 11:26:58;;;;;;;5.35;1.77;;;22.90;40.30;;;;;;4914962;29;20042;-81
2021/04/25 11:29:30;;;;;;;3.45;1.88;;;22.90;41.30;;;;;;4934942;29;20032;-80
2021/04/25 11:31:56;;;;;;;11.25;1.92;;;22.90;41.50;;;;;;4935050;29;20097;-81
2021/04/25 11:34:25;;;;;;;1.85;1.52;;;23.00;41.20;;;;;;4935068;29;20062;-81
2021/04/25 11:37:01;;;;;;;4.38;1.95;;;23.10;40.90;;;;;;4933979;29;20517;-81
2021/04/25 11:39:41;;;;;;;3.58;1.60;;;23.20;40.00;;;;;;4934425;29;20047;-80
2021/04/25 11:42:08;;;;;;;2.05;1.20;;;23.20;40.90;;;;;;4934794;29;20020;-81
2021/04/25 11:44:42;;;;;;;3.72;1.75;;;23.30;40.00;;;;;;4931283;29;20062;-81
2021/04/25 11:47:16;;;;;;;1.23;1.13;;;23.40;40.00;;;;;;4934590;29;20510;-80
2021/04/25 11:49:52;;;;;;;4.03;1.35;;;23.60;41.10;;;;;;4929217;29;20575;-81
2021/04/25 11:52:19;;;;;;;1.80;1.40;;;23.60;40.60;;;;;;4931975;29;20479;-80
2021/04/25 11:54:49;;;;;;;2.88;1.38;;;23.70;40.50;;;;;;4934239;29;20035;-80
2021/04/25 11:57:18;;;;;;;3.22;1.70;;;23.70;40.70;;;;;;4933698;29;20032;-81
2021/04/25 12:00:05;;;;;;;5.18;1.60;;;23.70;40.50;;;;;;4935186;29;20554;-81
2021/04/25 12:02:33;;;;;;;5.43;1.40;;;23.80;40.30;;;;;;4918575;29;20032;-81
2021/04/25 12:05:05;;;;;;;2.80;1.58;;;23.90;39.80;;;;;;4936863;29;20027;-80
2021/04/25 12:07:36;;;;;;;5.25;1.70;;;24.10;39.80;;;;;;4934541;29;20054;-81
2021/04/25 12:10:21;;;;;;;2.00;1.60;;;24.30;39.10;;;;;;4934835;29;20027;-81
2021/04/25 12:13:12;;;;;;;4.47;1.33;;;24.10;40.10;;;;;;4934419;29;20028;-80
2021/04/25 12:15:39;;;;;;;1.80;1.40;;;24.10;40.00;;;;;;4934347;29;20102;-80
2021/04/25 12:18:04;;;;;;;8.90;1.48;;;23.90;39.70;;;;;;4934168;29;20032;-81
2021/04/25 12:20:30;;;;;;;2.58;1.50;;;23.90;39.90;;;;;;4934397;29;20456;-81
2021/04/25 12:22:56;;;;;;;3.15;1.50;;;23.80;40.70;;;;;;4934315;29;20071;-82
2021/04/25 12:25:23;;;;;;;4.55;1.90;;;23.40;40.90;;;;;;4932668;29;20506;-80
2021/04/25 12:27:52;;;;;;;3.67;1.65;;;23.20;41.10;;;;;;4931687;29;20070;-80
2021/04/25 12:30:25;;;;;;;5.93;1.63;;;23.10;40.40;;;;;;4933597;29;20072;-80
2021/04/25 12:33:11;;;;;;;4.25;1.35;;;23.00;41.20;;;;;;4935798;29;20282;-81
2021/04/25 12:36:04;;;;;;;1.75;1.65;;;22.90;42.30;;;;;;4936970;29;20483;-81
2021/04/25 12:38:29;;;;;;;2.92;1.80;;;23.00;42.20;;;;;;4926348;29;20032;-80
2021/04/25 12:41:01;;;;;;;1.60;1.50;;;23.20;41.80;;;;;;4936619;29;20079;-80
2021/04/25 12:43:29;;;;;;;1.77;1.52;;;23.20;40.90;;;;;;4936550;29;20103;-80
2021/04/25 12:45:56;;;;;;;3.08;1.50;;;23.20;41.50;;;;;;4917954;29;20019;-80
2021/04/25 12:48:26;;;;;;;2.00;1.52;;;23.30;41.30;;;;;;4936719;29;20074;-81